Time;durP1;ratioP1;P1;durP2;ratioP2;P2;SDS_P1;SDS_P2;PMS_P1;PMS_P2;Temp;Humidity;BMP_temperature;BMP_pressure;BME280_temperature;BME280_humidity;BME280_pressure;Samples;Min_cycle;Max_cycle;Signal;HPM_P1;HPM_P2
2022/11/20 00:01:17;;;;;;;45.47;35.13;;;;;;;14.30;100.00;98894.25;5040893;28;20189;-56
2022/11/20 00:03:44;;;;;;;49.77;36.97;;;;;;;14.18;100.00;98877.13;5036967;28;20193;-56
2022/11/20 00:06:14;;;;;;;47.67;35.73;;;;;;;14.19;100.00;98880.56;5041877;28;20201;-57
2022/11/20 00:08:42;;;;;;;43.47;34.00;;;;;;;14.15;100.00;98860.78;5037274;28;20588;-56
2022/11/20 00:11:15;;;;;;;52.57;36.50;;;;;;;14.14;100.00;98892.69;5044631;28;20197;-56
2022/11/20 00:13:42;;;;;;;46.13;35.93;;;;;;;14.17;100.00;98883.16;5040294;28;20207;-57
2022/11/20 00:16:11;;;;;;;44.27;34.43;;;;;;;14.17;100.00;98879.75;5034284;28;20227;-56
2022/11/20 00:18:38;;;;;;;50.97;35.47;;;;;;;14.18;100.00;98886.59;5034775;28;20200;-56
2022/11/20 00:21:06;;;;;;;46.53;36.40;;;;;;;14.12;100.00;98874.59;5034566;28;20752;-56
2022/11/20 00:23:35;;;;;;;43.70;35.67;;;;;;;14.10;100.00;98889.25;5045621;28;20259;-56
2022/11/20 00:26:05;;;;;;;44.50;35.27;;;;;;;14.11;100.00;98867.72;5074743;28;20763;-56
2022/11/20 00:28:32;;;;;;;43.80;34.33;;;;;;;14.14;100.00;98866.84;5074642;28;20202;-56
2022/11/20 00:31:04;;;;;;;46.57;34.07;;;;;;;14.15;100.00;98878.88;5074467;28;20542;-56
2022/11/20 00:33:31;;;;;;;47.23;35.50;;;;;;;14.15;100.00;98878.88;5074039;28;20220;-56
2022/11/20 00:36:03;;;;;;;41.33;32.67;;;;;;;14.08;100.00;98878.06;5074035;28;20679;-55
2022/11/20 00:38:30;;;;;;;45.80;35.33;;;;;;;14.15;100.00;98892.66;5074272;28;20191;-56
2022/11/20 00:41:00;;;;;;;45.83;36.23;;;;;;;14.19;100.00;98880.56;5074636;28;20187;-56
2022/11/20 00:43:27;;;;;;;44.83;37.70;;;;;;;14.14;100.00;98869.44;5074898;28;20217;-56
2022/11/20 00:45:57;;;;;;;48.37;36.07;;;;;;;14.20;100.00;98870.22;5074695;28;20207;-56
2022/11/20 00:48:24;;;;;;;45.90;35.93;;;;;;;14.16;100.00;98865.97;5073988;28;20192;-56
2022/11/20 00:50:51;;;;;;;44.40;34.10;;;;;;;14.09;100.00;98889.28;5073995;28;20670;-55
2022/11/20 00:53:18;;;;;;;43.00;33.47;;;;;;;13.97;100.00;98891.94;5074083;28;20271;-55
2022/11/20 00:55:53;;;;;;;44.97;34.20;;;;;;;14.00;100.00;98879.88;5073953;28;20215;-55
2022/11/20 00:58:22;;;;;;;39.80;32.53;;;;;;;14.05;100.00;98882.41;5073870;28;20666;-56
2022/11/20 01:00:49;;;;;;;47.60;35.50;;;;;;;14.12;100.00;98879.75;5074177;28;20251;-56
2022/11/20 01:03:16;;;;;;;41.73;33.47;;;;;;;14.10;100.00;98872.88;5074184;28;20195;-56
2022/11/20 01:05:43;;;;;;;46.73;33.93;;;;;;;14.19;100.00;98880.56;5073945;28;20196;-56
2022/11/20 01:08:10;;;;;;;42.03;31.30;;;;;;;14.27;100.00;98872.75;5074038;28;20535;-56
2022/11/20 01:10:37;;;;;;;41.70;32.50;;;;;;;14.24;100.00;98886.56;5074046;28;20195;-56
2022/11/20 01:15:50;;;;;;;45.80;33.53;;;;;;;14.34;100.00;98872.72;5073761;28;20229;-56
2022/11/20 01:18:16;;;;;;;44.83;34.30;;;;;;;14.33;100.00;98873.59;5073665;28;20193;-56
2022/11/20 01:20:43;;;;;;;52.47;35.33;;;;;;;14.28;100.00;98864.13;5073479;28;20193;-56
2022/11/20 01:23:10;;;;;;;44.33;33.57;;;;;;;14.21;100.00;98858.16;5073444;28;20191;-56
2022/11/20 01:25:37;;;;;;;46.50;33.67;;;;;;;14.19;100.00;98858.19;5073565;28;20200;-56
2022/11/20 01:28:04;;;;;;;45.67;33.70;;;;;;;14.20;100.00;98871.97;5073502;28;20185;-56
2022/11/20 01:30:30;;;;;;;43.27;34.77;;;;;;;14.16;100.00;98847.00;5073214;28;20679;-56
2022/11/20 01:32:58;;;;;;;43.03;33.20;;;;;;;14.03;100.00;98845.41;5072874;28;20269;-56
2022/11/20 01:35:25;;;;;;;47.27;36.27;;;;;;;14.05;100.00;98854.84;5066433;28;20222;-56
2022/11/20 01:37:52;;;;;;;45.13;35.00;;;;;;;14.07;100.00;98868.59;5053172;28;20533;-56
2022/11/20 01:40:19;;;;;;;38.43;32.17;;;;;;;13.95;100.00;98832.53;5053806;28;20196;-56
2022/11/20 01:45:57;;;;;;;43.67;35.73;;;;;;;14.02;100.00;98846.25;5053383;28;20301;-56
2022/11/20 01:48:30;;;;;;;45.43;34.47;;;;;;;14.02;100.00;98815.28;5052436;28;20652;-56
2022/11/20 01:50:59;;;;;;;45.47;34.37;;;;;;;14.02;100.00;98830.75;5053323;28;20190;-56
2022/11/20 01:53:31;;;;;;;48.97;35.10;;;;;;;14.02;100.00;98823.00;5052764;28;20192;-56
2022/11/20 01:56:01;;;;;;;45.50;34.63;;;;;;;14.13;100.00;98821.19;5053699;28;20216;-56
2022/11/20 01:58:33;;;;;;;45.77;34.03;;;;;;;14.16;100.00;98831.50;5052897;28;20652;-56
2022/11/20 02:01:00;;;;;;;46.03;33.67;;;;;;;14.16;100.00;98823.75;5052890;28;20180;-56
2022/11/20 02:03:29;;;;;;;45.87;34.23;;;;;;;14.21;100.00;98816.81;5052691;28;20194;-56
2022/11/20 02:06:02;;;;;;;42.03;37.50;;;;;;;14.13;100.00;98798.81;5051926;28;20438;-56
2022/11/20 02:08:30;;;;;;;45.10;33.63;;;;;;;14.40;100.00;98820.09;5051480;28;20188;-57
2022/11/20 02:10:56;;;;;;;46.13;34.83;;;;;;;14.38;100.00;98814.97;5057658;28;20740;-56
2022/11/20 02:16:12;;;;;;;48.88;36.75;;;;;;;14.37;100.00;98822.72;5047794;28;20984;-56
2022/11/20 02:18:41;;;;;;;49.10;33.87;;;;;;;14.38;100.00;98816.69;5046251;28;20196;-57
2022/11/20 02:21:14;;;;;;;45.07;33.97;;;;;;;14.34;100.00;98797.78;5048763;28;20190;-56
2022/11/20 02:23:59;;;;;;;41.67;33.23;;;;;;;14.41;100.00;98817.53;5047486;28;20696;-57
2022/11/20 02:26:28;;;;;;;46.60;33.13;;;;;;;14.44;100.00;98814.91;5046235;28;20194;-57
2022/11/20 02:28:55;;;;;;;42.23;32.30;;;;;;;14.43;100.00;98805.44;5048777;28;20578;-56
2022/11/20 02:31:22;;;;;;;41.40;33.20;;;;;;;14.40;100.00;98789.97;5061246;28;20197;-56
2022/11/20 02:33:55;;;;;;;40.57;30.40;;;;;;;14.44;100.00;98790.78;5071737;28;20224;-56
2022/11/20 02:36:22;;;;;;;49.07;32.53;;;;;;;14.38;100.00;98799.47;5071759;28;20229;-56
2022/11/20 02:38:50;;;;;;;40.27;31.20;;;;;;;14.29;100.00;98780.56;5070345;28;20188;-57
2022/11/20 02:41:18;;;;;;;39.73;30.73;;;;;;;14.29;100.00;98784.00;5070005;28;20189;-57
2022/11/20 02:43:45;;;;;;;45.80;31.63;;;;;;;14.22;100.00;98779.78;5069995;28;20222;-57
2022/11/20 02:46:12;;;;;;;39.90;30.13;;;;;;;14.23;100.00;98789.22;5070178;28;20204;-57
2022/11/20 02:48:39;;;;;;;34.27;30.17;;;;;;;14.18;100.00;98773.78;5069995;28;20249;-56
2022/11/20 02:51:06;;;;;;;41.40;31.83;;;;;;;14.29;100.00;98793.47;5070094;28;20469;-57
2022/11/20 02:53:32;;;;;;;38.97;29.67;;;;;;;14.32;100.00;98801.25;5071334;28;20195;-56
2022/11/20 02:55:59;;;;;;;35.03;27.10;;;;;;;14.36;100.00;98803.81;5072002;28;20583;-56
2022/11/20 02:58:27;;;;;;;39.30;28.17;;;;;;;14.44;100.00;98808.88;5071925;28;20189;-56
2022/11/20 03:00:54;;;;;;;37.23;27.97;;;;;;;14.45;100.00;98798.50;5070970;28;20193;-56
2022/11/20 03:03:21;;;;;;;29.17;22.37;;;;;;;14.55;100.00;98788.94;5071861;28;20356;-56
2022/11/20 03:05:48;;;;;;;29.93;24.20;;;;;;;14.56;100.00;98772.53;5072262;28;20204;-56
2022/11/20 03:08:15;;;;;;;30.57;25.63;;;;;;;14.56;100.00;98788.06;5072001;28;20191;-56
2022/11/20 03:10:41;;;;;;;34.73;26.20;;;;;;;14.54;100.00;98785.50;5071760;28;20200;-56
2022/11/20 03:13:08;;;;;;;34.73;24.90;;;;;;;14.47;100.00;98783.88;5071974;28;20187;-56
2022/11/20 03:15:38;;;;;;;28.73;23.43;;;;;;;14.51;100.00;98797.59;5071570;28;20646;-55
2022/11/20 03:18:05;;;;;;;34.80;27.03;;;;;;;14.54;100.00;98806.19;5071354;28;20192;-56
2022/11/20 03:20:33;;;;;;;33.40;24.47;;;;;;;14.51;100.00;98805.34;5072550;28;20227;-56
2022/11/20 03:23:01;;;;;;;29.83;25.13;;;;;;;14.48;100.00;98790.72;5072140;28;20613;-56
2022/11/20 03:25:28;;;;;;;34.17;27.43;;;;;;;14.48;100.00;98775.22;5071589;28;20209;-56
2022/11/20 03:27:54;;;;;;;34.60;26.30;;;;;;;14.35;100.00;98778.81;5071551;28;20188;-55
2022/11/20 03:30:21;;;;;;;33.40;25.83;;;;;;;14.26;100.00;98771.13;5071539;28;20578;-56
2022/11/20 03:32:49;;;;;;;36.93;25.90;;;;;;;14.31;100.00;98777.09;5071935;28;20251;-56
2022/11/20 03:35:17;;;;;;;30.83;26.33;;;;;;;14.37;100.00;98776.19;5071551;28;20192;-56
2022/11/20 03:37:45;;;;;;;32.10;25.03;;;;;;;14.36;100.00;98788.28;5071642;28;20272;-56
2022/11/20 03:40:13;;;;;;;36.17;28.40;;;;;;;14.40;100.00;98773.59;5070353;28;20453;-56
2022/11/20 03:42:46;;;;;;;31.57;24.87;;;;;;;14.47;100.00;98777.84;5071869;28;20436;-56
2022/11/20 03:45:13;;;;;;;33.47;24.10;;;;;;;14.42;100.00;98790.78;5071634;28;20256;-56
2022/11/20 03:47:40;;;;;;;33.10;26.30;;;;;;;14.38;100.00;98783.09;5071356;28;20662;-55
2022/11/20 03:50:09;;;;;;;25.87;20.67;;;;;;;14.43;100.00;98784.75;5071885;28;20187;-55
2022/11/20 03:52:36;;;;;;;29.67;21.50;;;;;;;14.42;100.00;98789.97;5071597;28;20194;-56
2022/11/20 03:55:03;;;;;;;32.60;22.33;;;;;;;14.39;100.00;98788.28;5071739;28;20191;-56
2022/11/20 03:57:29;;;;;;;23.73;19.47;;;;;;;14.25;100.00;98765.97;5071653;28;20278;-56
2022/11/20 03:59:56;;;;;;;20.37;17.50;;;;;;;14.33;100.00;98788.31;5071505;28;20245;-56
2022/11/20 04:02:23;;;;;;;18.73;15.63;;;;;;;14.40;100.00;98777.03;5071581;28;20585;-56
2022/11/20 04:04:50;;;;;;;24.00;15.73;;;;;;;14.44;100.00;98786.50;5071297;28;20790;-56
2022/11/20 04:07:18;;;;;;;26.83;18.87;;;;;;;14.39;100.00;98806.34;5071516;28;20188;-56
2022/11/20 04:09:45;;;;;;;24.40;17.27;;;;;;;14.42;100.00;98790.78;5071483;28;20676;-56
2022/11/20 04:12:12;;;;;;;19.77;14.87;;;;;;;14.44;100.00;98789.06;5073969;28;20241;-56
2022/11/20 04:14:39;;;;;;;19.03;15.07;;;;;;;14.41;100.00;98798.56;5074988;28;20249;-56
2022/11/20 04:17:05;;;;;;;21.67;15.90;;;;;;;14.38;100.00;98791.72;5074718;28;20222;-56
2022/11/20 04:19:32;;;;;;;18.30;14.60;;;;;;;14.38;100.00;98803.78;5075233;28;20247;-56
2022/11/20 04:21:59;;;;;;;16.93;13.57;;;;;;;14.40;100.00;98802.88;5074783;28;20189;-56
2022/11/20 04:24:27;;;;;;;17.60;14.27;;;;;;;14.45;100.00;98802.84;5074787;28;20585;-55
2022/11/20 04:26:54;;;;;;;21.97;15.10;;;;;;;14.49;100.00;98801.94;5074895;28;20221;-55
2022/11/20 04:29:21;;;;;;;26.63;15.63;;;;;;;14.48;100.00;98806.25;5074555;28;20191;-55
2022/11/20 04:31:48;;;;;;;23.37;15.03;;;;;;;14.50;100.00;98804.50;5074608;28;20203;-55
2022/11/20 04:34:15;;;;;;;18.50;13.83;;;;;;;14.57;100.00;98797.53;5074392;28;20184;-55
2022/11/20 04:36:42;;;;;;;17.07;11.87;;;;;;;14.29;100.00;98753.00;5074721;28;20216;-55
2022/11/20 04:39:14;;;;;;;23.90;10.97;;;;;;;14.57;100.00;98795.81;5074308;28;20191;-55
2022/11/20 04:41:42;;;;;;;17.23;10.87;;;;;;;14.52;100.00;98783.81;5074489;28;20723;-55
2022/11/20 04:44:09;;;;;;;14.93;9.83;;;;;;;14.74;100.00;98793.91;5074304;28;20188;-55
2022/11/20 04:46:38;;;;;;;20.57;11.30;;;;;;;14.73;100.00;98801.66;5074221;28;20187;-55
2022/11/20 04:49:06;;;;;;;14.20;9.30;;;;;;;14.61;100.00;98794.88;5074928;28;20252;-55
2022/11/20 04:51:33;;;;;;;16.23;9.40;;;;;;;14.71;100.00;98798.25;5074029;28;20649;-55
2022/11/20 04:53:59;;;;;;;18.00;9.30;;;;;;;14.75;100.00;98794.72;5074230;28;20194;-56
2022/11/20 04:56:26;;;;;;;18.03;10.03;;;;;;;14.75;100.00;98803.34;5074389;28;20222;-55
2022/11/20 04:58:55;;;;;;;13.90;9.50;;;;;;;14.68;100.00;98801.72;5074139;28;20205;-56
2022/11/20 05:01:23;;;;;;;18.53;10.37;;;;;;;14.59;100.00;98788.03;5073952;28;20191;-55
2022/11/20 05:03:50;;;;;;;13.43;8.80;;;;;;;14.71;100.00;98799.09;5074136;28;20190;-56
2022/11/20 05:06:19;;;;;;;17.57;8.33;;;;;;;14.83;100.00;98784.31;5074505;28;20196;-55
2022/11/20 05:08:46;;;;;;;17.03;8.20;;;;;;;14.95;100.00;98787.59;5073968;28;20324;-56
2022/11/20 05:11:15;;;;;;;21.43;8.43;;;;;;;14.94;100.00;98795.38;5073962;28;20661;-55
2022/11/20 05:13:43;;;;;;;13.47;7.93;;;;;;;14.74;100.00;98785.28;5074063;28;20200;-56
2022/11/20 05:16:12;;;;;;;16.87;8.17;;;;;;;14.87;100.00;98820.47;5074054;28;20252;-55
2022/11/20 05:18:40;;;;;;;14.60;8.90;;;;;;;14.87;100.00;98819.59;5074277;28;20188;-55
2022/11/20 05:21:08;;;;;;;16.43;8.17;;;;;;;14.83;100.00;98797.25;5073820;28;20600;-55
2022/11/20 05:23:35;;;;;;;15.70;8.37;;;;;;;14.76;100.00;98809.38;5072710;28;20243;-56
2022/11/20 05:26:02;;;;;;;15.83;8.30;;;;;;;14.75;100.00;98820.59;5073811;28;20566;-56
2022/11/20 05:28:31;;;;;;;12.80;8.03;;;;;;;14.75;100.00;98812.81;5073533;28;20642;-56
2022/11/20 05:31:05;;;;;;;14.57;8.03;;;;;;;15.08;100.00;98799.50;5073534;28;20194;-56
2022/11/20 05:33:34;;;;;;;18.53;9.47;;;;;;;15.10;100.00;98795.19;5071179;28;20223;-55
2022/11/20 05:36:01;;;;;;;13.90;8.53;;;;;;;15.05;100.00;98803.88;5073464;28;20201;-56
2022/11/20 05:38:27;;;;;;;14.00;10.00;;;;;;;15.06;100.00;98809.00;5073318;28;20223;-56
2022/11/20 05:40:54;;;;;;;18.70;7.93;;;;;;;15.16;100.00;98794.25;5073422;28;20554;-57
2022/11/20 05:43:21;;;;;;;12.03;7.80;;;;;;;15.17;100.00;98801.97;5073453;28;20245;-56
2022/11/20 05:45:53;;;;;;;14.53;8.30;;;;;;;15.19;100.00;98807.13;5073407;28;20199;-56
2022/11/20 05:48:20;;;;;;;16.80;8.27;;;;;;;15.17;100.00;98806.28;5073422;28;20191;-56
2022/11/20 05:50:48;;;;;;;17.50;9.30;;;;;;;15.17;100.00;98801.09;5071500;28;20662;-56
2022/11/20 05:53:15;;;;;;;17.37;8.97;;;;;;;15.18;100.00;98811.44;5033545;28;20202;-56
2022/11/20 05:55:42;;;;;;;12.07;8.70;;;;;;;15.19;100.00;98813.16;5033083;28;20185;-56
2022/11/20 05:58:09;;;;;;;14.80;9.10;;;;;;;15.18;100.00;98808.88;5063901;28;20219;-56
2022/11/20 06:00:36;;;;;;;15.83;8.43;;;;;;;15.22;100.00;98812.25;5073044;28;20188;-56
2022/11/20 06:03:03;;;;;;;13.90;9.17;;;;;;;15.15;100.00;98808.03;5072939;28;20194;-56
2022/11/20 06:05:29;;;;;;;17.87;9.70;;;;;;;15.17;100.00;98824.41;5072848;28;20192;-56
2022/11/20 06:07:58;;;;;;;15.60;9.57;;;;;;;15.16;100.00;98843.41;5073136;28;20252;-56
2022/11/20 06:10:24;;;;;;;16.43;10.60;;;;;;;15.09;100.00;98813.28;5073056;28;20197;-56
2022/11/20 06:12:51;;;;;;;19.17;11.23;;;;;;;15.04;100.00;98808.19;5072967;28;20573;-56
2022/11/20 06:15:18;;;;;;;15.57;10.90;;;;;;;14.96;100.00;98835.88;5072807;28;20247;-56
2022/11/20 06:17:45;;;;;;;12.73;11.27;;;;;;;14.94;100.00;98804.00;5072559;28;20226;-56
2022/11/20 06:20:12;;;;;;;19.70;10.93;;;;;;;14.97;100.00;98811.69;5072403;28;20278;-56
2022/11/20 06:22:39;;;;;;;16.43;9.83;;;;;;;14.99;100.00;98809.97;5072440;28;20196;-56
2022/11/20 06:25:08;;;;;;;12.13;9.30;;;;;;;15.04;100.00;98838.38;5072478;28;20277;-56
2022/11/20 06:27:34;;;;;;;16.30;9.60;;;;;;;15.05;100.00;98846.09;5072494;28;20570;-57
2022/11/20 06:30:01;;;;;;;17.10;10.30;;;;;;;15.05;100.00;98838.34;5047238;28;20278;-57
2022/11/20 06:32:28;;;;;;;16.20;11.30;;;;;;;15.04;100.00;98859.94;5039412;28;20225;-56
2022/11/20 06:34:55;;;;;;;16.73;10.93;;;;;;;15.05;100.00;98835.75;5038412;28;20224;-55
2022/11/20 06:37:22;;;;;;;12.73;8.97;;;;;;;15.10;100.00;98828.81;5032323;28;20251;-56
2022/11/20 06:39:48;;;;;;;18.40;11.20;;;;;;;15.22;100.00;98844.16;5032218;28;20610;-55
2022/11/20 06:42:16;;;;;;;18.67;10.27;;;;;;;15.28;100.00;98843.22;5032463;28;20272;-55
2022/11/20 06:44:44;;;;;;;14.70;9.43;;;;;;;15.40;100.00;98840.50;5032100;28;20192;-55
2022/11/20 06:47:10;;;;;;;16.15;10.57;;;;;;;15.48;100.00;98849.03;5031598;28;20503;-56
2022/11/20 06:49:38;;;;;;;18.30;9.70;;;;;;;15.58;100.00;98850.63;5043235;28;20195;-56
2022/11/20 06:52:05;;;;;;;24.90;12.33;;;;;;;15.59;100.00;98849.75;5072003;28;20191;-56
2022/11/20 06:54:32;;;;;;;15.87;11.00;;;;;;;15.61;100.00;98829.00;5072143;28;20198;-56
2022/11/20 06:56:59;;;;;;;20.33;12.03;;;;;;;15.69;100.00;98840.97;5072022;28;20272;-56
2022/11/20 06:59:27;;;;;;;18.50;10.63;;;;;;;15.69;100.00;98861.69;5072170;28;20189;-56
2022/11/20 07:01:54;;;;;;;16.83;10.23;;;;;;;15.77;99.87;98856.38;5071946;28;20289;-56
2022/11/20 07:04:21;;;;;;;14.07;10.37;;;;;;;15.80;100.00;98857.19;5072013;28;20195;-55
2022/11/20 07:06:47;;;;;;;14.13;9.93;;;;;;;15.83;98.86;98835.56;5072036;28;20217;-55
2022/11/20 07:09:14;;;;;;;14.20;9.90;;;;;;;15.49;99.07;98786.03;5069501;28;20226;-55
2022/11/20 07:11:41;;;;;;;14.03;9.47;;;;;;;15.90;98.89;98843.22;5056712;28;20202;-55
2022/11/20 07:14:08;;;;;;;14.70;9.20;;;;;;;16.03;98.50;98848.22;5071992;28;20350;-55
2022/11/20 07:16:36;;;;;;;15.07;9.83;;;;;;;16.05;97.99;98857.66;5071576;28;20187;-56
2022/11/20 07:19:03;;;;;;;14.03;9.13;;;;;;;16.12;97.97;98876.59;5071507;28;20198;-55
2022/11/20 07:21:30;;;;;;;17.03;10.00;;;;;;;16.17;97.94;98874.78;5071908;28;20187;-55
2022/11/20 07:23:57;;;;;;;16.20;9.93;;;;;;;16.17;96.73;98838.47;5071429;28;20646;-55
2022/11/20 07:26:23;;;;;;;15.73;9.50;;;;;;;16.11;96.60;98843.75;5071565;28;20191;-55
2022/11/20 07:28:50;;;;;;;16.00;11.83;;;;;;;16.03;97.14;98848.22;5071689;28;20221;-56
2022/11/20 07:31:17;;;;;;;11.93;9.07;;;;;;;16.08;97.56;98849.00;5071748;28;20184;-56
2022/11/20 07:33:45;;;;;;;17.42;10.57;;;;;;;16.13;97.55;98871.38;5071808;28;20863;-56
2022/11/20 07:36:12;;;;;;;19.70;11.07;;;;;;;16.23;97.33;98874.69;5071774;28;20200;-56
2022/11/20 07:38:39;;;;;;;14.83;9.23;;;;;;;16.32;96.31;98869.31;5071311;28;20219;-56
2022/11/20 07:41:06;;;;;;;16.43;9.33;;;;;;;16.28;96.01;98872.84;5071357;28;20705;-56
2022/11/20 07:43:33;;;;;;;13.73;10.07;;;;;;;16.34;96.43;98888.31;5058781;28;20193;-57
2022/11/20 07:46:00;;;;;;;15.27;10.20;;;;;;;16.30;96.03;98868.50;5050993;28;20196;-56
2022/11/20 07:48:27;;;;;;;18.50;11.17;;;;;;;16.29;96.51;98869.38;5055099;28;20259;-56
2022/11/20 07:50:56;;;;;;;19.37;11.07;;;;;;;16.25;97.01;98878.09;5058045;28;20202;-56
2022/11/20 07:53:23;;;;;;;17.63;11.90;;;;;;;16.33;96.73;98889.19;5075238;28;20195;-56
2022/11/20 07:55:52;;;;;;;18.77;12.03;;;;;;;16.34;96.54;98876.19;5075346;28;20188;-56
2022/11/20 07:58:19;;;;;;;21.03;12.10;;;;;;;16.28;96.58;98871.13;5075083;28;20326;-56
2022/11/20 08:00:45;;;;;;;16.13;11.93;;;;;;;16.20;96.68;98864.34;5075061;28;20597;-56
2022/11/20 08:03:12;;;;;;;18.33;12.13;;;;;;;16.22;96.87;98868.63;5075007;28;20188;-56
2022/11/20 08:05:39;;;;;;;19.73;13.37;;;;;;;16.28;97.05;98863.34;5063572;28;20302;-55
2022/11/20 08:08:07;;;;;;;23.90;14.33;;;;;;;16.30;96.26;98856.41;5054312;28;20250;-56
2022/11/20 08:10:34;;;;;;;23.50;14.27;;;;;;;16.36;96.42;98865.81;5054889;28;20275;-56
2022/11/20 08:15:50;;;;;;;18.40;13.47;;;;;;;16.48;96.05;98875.97;5053852;28;20203;-56
2022/11/20 08:18:18;;;;;;;20.65;14.10;;;;;;;16.62;95.34;98874.00;5052824;28;20533;-56
2022/11/20 08:20:45;;;;;;;21.23;13.93;;;;;;;16.73;94.52;98864.28;5066721;28;20223;-56
2022/11/20 08:23:13;;;;;;;23.77;14.03;;;;;;;16.82;94.24;98853.75;5074670;28;20187;-56
2022/11/20 08:25:40;;;;;;;29.67;14.80;;;;;;;16.88;92.55;98863.16;5074237;28;20561;-56
2022/11/20 08:28:09;;;;;;;23.97;17.47;;;;;;;16.78;92.49;98864.22;5074757;28;20191;-56
2022/11/20 08:30:36;;;;;;;22.13;14.87;;;;;;;16.82;92.61;98871.91;5074424;28;20562;-56
2022/11/20 08:33:06;;;;;;;23.97;18.80;;;;;;;16.93;92.10;98882.09;5074604;28;20219;-57
2022/11/20 08:35:35;;;;;;;24.73;18.33;;;;;;;17.03;92.25;98868.91;5074594;28;20191;-56
2022/11/20 08:38:02;;;;;;;23.43;16.77;;;;;;;17.17;92.11;98857.41;5074138;28;20222;-56
2022/11/20 08:40:30;;;;;;;22.43;15.73;;;;;;;17.27;91.19;98846.78;5075144;28;20192;-55
2022/11/20 08:42:57;;;;;;;20.00;12.27;;;;;;;17.36;90.81;98840.56;5074456;28;20191;-56
2022/11/20 08:45:24;;;;;;;24.73;13.93;;;;;;;17.49;90.78;98842.00;5073951;28;20445;-56
2022/11/20 08:47:51;;;;;;;17.70;11.33;;;;;;;17.66;89.37;98847.72;5074454;28;20249;-56
2022/11/20 08:50:18;;;;;;;16.23;11.10;;;;;;;17.73;87.86;98825.88;5074164;28;20194;-56
2022/11/20 08:52:45;;;;;;;17.93;11.27;;;;;;;17.78;85.10;98826.63;5074155;28;20531;-57
2022/11/20 08:55:13;;;;;;;23.67;13.57;;;;;;;18.04;85.56;98844.22;5074192;28;20654;-57
2022/11/20 08:57:41;;;;;;;21.10;13.03;;;;;;;18.10;84.68;98841.47;5074398;28;20253;-56
2022/11/20 09:00:09;;;;;;;21.13;15.47;;;;;;;18.05;83.90;98832.91;5073940;28;20191;-56
2022/11/20 09:02:37;;;;;;;28.50;19.57;;;;;;;18.02;84.68;98849.44;5073964;28;20249;-57
2022/11/20 09:05:04;;;;;;;29.57;19.77;;;;;;;18.08;84.39;98830.22;5073841;28;20200;-57
2022/11/20 09:07:31;;;;;;;33.80;28.00;;;;;;;18.17;83.84;98833.47;5073682;28;20192;-56
2022/11/20 09:09:58;;;;;;;31.93;26.87;;;;;;;18.24;83.64;98848.00;5073757;28;20276;-56
2022/11/20 09:12:25;;;;;;;30.43;24.80;;;;;;;18.47;83.62;98846.56;5073514;28;20194;-56
2022/11/20 09:14:53;;;;;;;23.90;18.57;;;;;;;18.83;82.02;98846.50;5073662;28;20187;-56
2022/11/20 09:17:20;;;;;;;18.33;13.77;;;;;;;18.87;80.55;98836.84;5073701;28;20238;-56
2022/11/20 09:19:48;;;;;;;25.37;14.97;;;;;;;18.66;80.63;98809.66;5062469;28;20275;-57
2022/11/20 09:22:14;;;;;;;21.53;14.27;;;;;;;18.85;81.20;98833.44;5052672;28;20684;-56
2022/11/20 09:24:42;;;;;;;14.87;10.00;;;;;;;19.00;80.57;98833.03;5052791;28;20181;-56
2022/11/20 09:27:09;;;;;;;15.07;8.23;;;;;;;19.10;80.09;98825.78;5053078;28;20192;-56
2022/11/20 09:29:36;;;;;;;12.17;6.70;;;;;;;19.17;80.48;98815.13;5048774;28;20200;-56
2022/11/20 09:32:04;;;;;;;12.80;7.17;;;;;;;19.19;81.18;98808.16;5048611;28;20227;-56
2022/11/20 09:34:31;;;;;;;16.20;8.07;;;;;;;19.21;81.08;98811.56;5051278;28;20624;-57
2022/11/20 09:36:58;;;;;;;7.83;6.30;;;;;;;19.24;82.31;98795.84;5052655;28;20196;-57
2022/11/20 09:39:25;;;;;;;13.77;7.47;;;;;;;19.32;82.05;98791.25;5050782;28;20728;-57
2022/11/20 09:42:21;;;;;;;13.07;9.07;;;;;;;19.53;80.47;98794.16;5051397;28;20199;-57
2022/11/20 09:45:03;;;;;;;17.47;12.60;;;;;;;19.73;79.92;98782.19;5050785;28;20192;-57
2022/11/20 09:47:45;;;;;;;14.80;10.60;;;;;;;19.84;79.21;98774.00;5051111;28;20590;-57
2022/11/20 09:50:27;;;;;;;15.80;9.97;;;;;;;20.10;78.46;98765.34;5049769;28;20283;-58
2022/11/20 09:53:08;;;;;;;11.20;8.60;;;;;;;20.15;76.85;98755.59;5051355;28;20214;-58
2022/11/20 09:55:37;;;;;;;13.13;10.03;;;;;;;20.20;77.15;98756.28;5050372;28;20216;-57
2022/11/20 09:58:07;;;;;;;15.03;10.60;;;;;;;20.30;77.26;98765.56;5054604;28;20618;-56
2022/11/20 10:00:36;;;;;;;9.53;7.23;;;;;;;20.48;76.08;98760.53;5054784;28;20191;-56
2022/11/20 10:03:14;;;;;;;14.70;7.37;;;;;;;20.63;75.12;98766.94;5072632;28;20219;-56
2022/11/20 10:05:45;;;;;;;14.93;7.50;;;;;;;20.73;74.81;98764.88;5072595;28;20649;-57
2022/11/20 10:08:20;;;;;;;13.80;6.90;;;;;;;20.86;74.09;98768.75;5072706;28;20259;-57
2022/11/20 10:10:51;;;;;;;12.13;6.80;;;;;;;20.88;73.28;98756.47;5066211;28;20318;-57
2022/11/20 10:13:40;;;;;;;9.10;6.80;;;;;;;21.07;72.41;98771.44;5051588;28;20681;-57
2022/11/20 10:16:20;;;;;;;10.83;7.27;;;;;;;21.03;71.92;98755.91;5050678;28;20188;-57
2022/11/20 10:19:05;;;;;;;12.67;7.67;;;;;;;20.99;72.81;98749.94;5051964;28;20307;-57
2022/11/20 10:21:47;;;;;;;11.97;7.87;;;;;;;21.00;72.64;98750.81;5051487;28;20192;-57
2022/11/20 10:24:45;;;;;;;12.17;7.57;;;;;;;20.97;72.67;98757.00;5050550;28;20192;-57
2022/11/20 10:27:31;;;;;;;16.97;8.60;;;;;;;21.05;73.83;98754.09;5028900;28;20589;-57
2022/11/20 10:30:05;;;;;;;14.43;7.67;;;;;;;21.07;73.93;98745.31;5063416;28;20195;-56
2022/11/20 10:32:37;;;;;;;14.53;8.77;;;;;;;21.13;73.91;98733.78;5072417;28;20293;-57
2022/11/20 10:35:19;;;;;;;16.00;7.90;;;;;;;21.18;73.58;98737.06;5071938;28;20211;-57
2022/11/20 10:37:50;;;;;;;12.43;8.47;;;;;;;21.23;72.85;98739.50;5062690;28;20591;-57
2022/11/20 10:40:24;;;;;;;11.97;8.13;;;;;;;21.28;72.46;98737.56;5051674;28;20191;-58
2022/11/20 10:42:55;;;;;;;18.37;8.67;;;;;;;21.16;72.95;98731.06;5051681;28;20677;-56
2022/11/20 10:45:44;;;;;;;14.80;8.80;;;;;;;21.01;73.91;98729.84;5051843;28;20184;-56
2022/11/20 10:48:18;;;;;;;20.33;10.03;;;;;;;21.02;74.06;98725.47;5051783;28;20222;-57
2022/11/20 10:51:12;;;;;;;15.87;9.20;;;;;;;21.05;74.16;98707.06;5051707;28;20275;-56
2022/11/20 10:53:49;;;;;;;16.42;9.13;;;;;;;21.12;74.48;98711.19;5046803;28;20961;-54
2022/11/20 10:56:21;;;;;;;18.40;9.13;;;;;;;21.18;74.04;98714.41;5051782;28;20582;-54
2022/11/20 10:59:00;;;;;;;15.77;9.55;;;;;;;21.13;74.07;98698.06;5050940;28;20513;-54
2022/11/20 11:01:27;;;;;;;16.00;10.37;;;;;;;21.22;73.56;98707.31;5051359;28;20203;-55
2022/11/20 11:03:56;;;;;;;15.10;8.73;;;;;;;21.25;73.53;98714.16;5052153;28;20215;-54
2022/11/20 11:06:31;;;;;;;16.27;8.57;;;;;;;21.24;73.11;98710.69;5052180;28;20192;-55
2022/11/20 11:09:01;;;;;;;18.57;9.30;;;;;;;21.22;73.37;98703.84;5052238;28;20226;-55
2022/11/20 11:11:31;;;;;;;13.52;9.18;;;;;;;21.21;74.14;98709.97;5050655;28;20490;-55
2022/11/20 11:14:06;;;;;;;14.00;9.27;;;;;;;21.30;73.46;98707.84;5051409;28;20192;-55
2022/11/20 11:16:33;;;;;;;19.10;11.03;;;;;;;21.32;73.54;98692.09;5051422;28;20187;-55
2022/11/20 11:19:07;;;;;;;16.87;9.90;;;;;;;21.36;73.33;98680.63;5051384;28;20215;-55
2022/11/20 11:21:36;;;;;;;15.83;8.43;;;;;;;21.43;72.13;98675.09;5062695;28;20198;-54
2022/11/20 11:24:05;;;;;;;14.40;8.93;;;;;;;21.42;71.96;98677.78;5075634;28;20673;-54
2022/11/20 11:26:31;;;;;;;16.10;8.80;;;;;;;;;;5075875;28;20191;-55
2022/11/20 11:29:00;;;;;;;19.33;13.83;;;;;;;21.35;71.94;98673.69;5075614;28;20202;-54
2022/11/20 11:31:28;;;;;;;20.83;11.03;;;;;;;21.26;70.83;98666.22;5075575;28;20194;-54
2022/11/20 11:34:05;;;;;;;21.20;12.20;;;;;;;21.12;73.71;98674.63;5075004;28;20290;-54